Edwards Crossroads, North Carolina
Current Conditions -  °F | °C
As of 7:15 PM on Monday 20 Oct 2014 (Local Time) from KGEV Reporting Station
Broken Clouds Broken Clouds  
Wind Chill: 54°   Ceiling: 8000
Heat Index: 54°   Visibility: 10mi
Dew Point: 46°   Wind: 0mph
Humidity: 73%   Direction: NA
Pressure: 30.01"   Gusts: NA
Location:  36.5212°N, 81.1574°W
Report Text: KGEV 202315Z AUTO 00000KT 10SM BKN080 BKN120 12/08 A3001 RMK AO2 T01230076
Loading
Personal Weather Stations






























Interactive Weather Map New forecast layout! Learn more

10-Day Weather Forecast

Advertisements
Track Severe Weather on mobile